PWSweather.com
Personal Weather Stations
Station Observations
FAUSKE
Nordland, Norway, FauskeNO 8200

Nordland, NorwayFauskeNO 8200

Lat: 67.2607586, Lon: 15.4114204

Elevation: 40

Station Type: Davis Vantage PRO2

http://www.bjornli.net/weather.html

Latest ConditionsUpdated 2:00:18 PM GMT+01:01 Friday, May 22, 2015
Currently Today's Max Today's Min Today's Average
Temperature 46.8°F8.2°C 49.6°F9.8°C 38.6°F3.7°C 45.9°F7.7°C
Dew Point 40.0°F4.4°C 40.0°F4.4°C 32.5°F0.3°C 35.0°F1.7°C
Winds Calm Calm 30.0 mph SE48.3 kmh SE - 9.3 mph 15.0 kmh
Wind Gusts 4.0 mph6.4 kmh 30.0 mph48.3 kmh - -
Humidity 77% 84% 56% 66%
Pressure 29.55 in1000.7 mb 29.76 in1007.8 mb 29.50 in999.0 mb -
Hour Temp Dew Point Humidity Winds Wind Gusts Pressure Precip Precip Rate Daily Precip Total
02:00 PM 46.8°F8.2°C 40.0°F4.4°C 77% Calm Calm 4.0 mph6.4 kmh 29.55 in1000.7 mb 0.00 in0.0 mm 0.00 in0.0 mm 0.01 in0.3 mm
01:40 PM 47.7°F8.7°C 39.8°F4.3°C 74% 1.0 mph SW1.6 kmh SW 16.0 mph25.7 kmh 29.55 in1000.7 mb 0.00 in0.0 mm 0.00 in0.0 mm 0.01 in0.3 mm
01:30 PM 48.5°F9.2°C 39.5°F4.2°C 71% 5.0 mph SW8.0 kmh SW 5.0 mph8.0 kmh 29.54 in1000.3 mb 0.00 in0.0 mm 0.00 in0.0 mm 0.01 in0.3 mm
01:10 PM 49.0°F9.4°C 39.3°F4.1°C 69% 5.0 mph SSW8.0 kmh SSW 11.0 mph17.7 kmh 29.53 in1000.0 mb 0.00 in0.0 mm 0.00 in0.0 mm 0.01 in0.3 mm
01:00 PM 49.0°F9.4°C 38.9°F3.8°C 68% 4.0 mph S6.4 kmh S 5.0 mph8.0 kmh 29.52 in999.7 mb 0.00 in0.0 mm 0.00 in0.0 mm 0.01 in0.3 mm
12:40 PM 48.9°F9.4°C 39.2°F4.0°C 69% 5.0 mph SSW8.0 kmh SSW 12.0 mph19.3 kmh 29.52 in999.7 mb 0.00 in0.0 mm 0.00 in0.0 mm 0.01 in0.3 mm
12:30 PM 48.9°F9.4°C 38.4°F3.6°C 67% 7.0 mph SE11.3 kmh SE 7.0 mph11.3 kmh 29.52 in999.7 mb 0.00 in0.0 mm 0.00 in0.0 mm 0.01 in0.3 mm
12:10 PM 49.1°F9.5°C 38.3°F3.5°C 66% 14.0 mph SE22.5 kmh SE 14.0 mph22.5 kmh 29.51 in999.3 mb 0.00 in0.0 mm 0.00 in0.0 mm 0.01 in0.3 mm
12:00 PM 49.2°F9.6°C 38.3°F3.5°C 66% 6.0 mph SE9.7 kmh SE 9.0 mph14.5 kmh 29.51 in999.3 mb 0.00 in0.0 mm 0.00 in0.0 mm 0.01 in0.3 mm
11:40 AM 49.4°F9.7°C 37.4°F3.0°C 63% 12.0 mph SE19.3 kmh SE 18.0 mph29.0 kmh 29.50 in999.0 mb 0.00 in0.0 mm 0.00 in0.0 mm 0.01 in0.3 mm
11:30 AM 49.5°F9.7°C 37.0°F2.8°C 62% 7.0 mph SE11.3 kmh SE 7.0 mph11.3 kmh 29.50 in999.0 mb 0.00 in0.0 mm 0.00 in0.0 mm 0.01 in0.3 mm
11:10 AM 49.3°F9.6°C 36.4°F2.4°C 61% 11.0 mph SSE17.7 kmh SSE 19.0 mph30.6 kmh 29.50 in999.0 mb 0.00 in0.0 mm 0.00 in0.0 mm 0.01 in0.3 mm
11:00 AM 49.4°F9.7°C 35.7°F2.1°C 59% 12.0 mph SE19.3 kmh SE 18.0 mph29.0 kmh 29.50 in999.0 mb 0.00 in0.0 mm 0.00 in0.0 mm 0.01 in0.3 mm
10:40 AM 49.4°F9.7°C 35.3°F1.8°C 58% 12.0 mph ESE19.3 kmh ESE 22.0 mph35.4 kmh 29.50 in999.0 mb 0.00 in0.0 mm 0.00 in0.0 mm 0.01 in0.3 mm
10:30 AM 49.5°F9.7°C 34.9°F1.6°C 57% 19.0 mph SE30.6 kmh SE 19.0 mph30.6 kmh 29.50 in999.0 mb 0.00 in0.0 mm 0.00 in0.0 mm 0.01 in0.3 mm
10:10 AM 49.6°F9.8°C 35.0°F1.7°C 57% 15.0 mph SE24.1 kmh SE 20.0 mph32.2 kmh 29.50 in999.0 mb 0.00 in0.0 mm 0.00 in0.0 mm 0.01 in0.3 mm
10:00 AM 49.6°F9.8°C 34.6°F1.4°C 56% 11.0 mph SE17.7 kmh SE 16.0 mph25.7 kmh 29.50 in999.0 mb 0.00 in0.0 mm 0.00 in0.0 mm 0.01 in0.3 mm
09:40 AM 49.6°F9.8°C 34.6°F1.4°C 56% 20.0 mph SE32.2 kmh SE 25.0 mph40.2 kmh 29.50 in999.0 mb 0.00 in0.0 mm 0.00 in0.0 mm 0.01 in0.3 mm
09:30 AM 49.6°F9.8°C 35.0°F1.7°C 57% 10.0 mph SE16.1 kmh SE 12.0 mph19.3 kmh 29.50 in999.0 mb 0.00 in0.0 mm 0.00 in0.0 mm 0.01 in0.3 mm
09:10 AM 49.6°F9.8°C 35.5°F1.9°C 58% 30.0 mph SE48.3 kmh SE 30.0 mph48.3 kmh 29.50 in999.0 mb 0.00 in0.0 mm 0.00 in0.0 mm 0.01 in0.3 mm
09:00 AM 49.4°F9.7°C 35.3°F1.8°C 58% 21.0 mph SE33.8 kmh SE 21.0 mph33.8 kmh 29.51 in999.3 mb 0.00 in0.0 mm 0.00 in0.0 mm 0.01 in0.3 mm
08:40 AM 49.0°F9.4°C 34.9°F1.6°C 58% 17.0 mph SE27.4 kmh SE 26.0 mph41.8 kmh 29.52 in999.7 mb 0.00 in0.0 mm 0.00 in0.0 mm 0.01 in0.3 mm
08:30 AM 49.0°F9.4°C 34.9°F1.6°C 58% 21.0 mph SE33.8 kmh SE 23.0 mph37.0 kmh 29.53 in1000.0 mb 0.00 in0.0 mm 0.00 in0.0 mm 0.01 in0.3 mm
08:09 AM 48.8°F9.3°C 34.7°F1.5°C 58% 15.0 mph SE24.1 kmh SE 25.0 mph40.2 kmh 29.54 in1000.3 mb 0.00 in0.0 mm 0.00 in0.0 mm 0.01 in0.3 mm
08:00 AM 48.7°F9.3°C 34.6°F1.4°C 58% 18.0 mph SE29.0 kmh SE 20.0 mph32.2 kmh 29.54 in1000.3 mb 0.00 in0.0 mm 0.00 in0.0 mm 0.01 in0.3 mm
07:40 AM 48.2°F9.0°C 34.6°F1.4°C 59% 20.0 mph SE32.2 kmh SE 22.0 mph35.4 kmh 29.55 in1000.7 mb 0.00 in0.0 mm 0.00 in0.0 mm 0.01 in0.3 mm
07:30 AM 48.1°F8.9°C 35.3°F1.8°C 61% 11.0 mph SE17.7 kmh SE 11.0 mph17.7 kmh 29.55 in1000.7 mb 0.00 in0.0 mm 0.00 in0.0 mm 0.01 in0.3 mm
07:10 AM 47.9°F8.8°C 33.9°F1.1°C 58% 21.0 mph SE33.8 kmh SE 28.0 mph45.1 kmh 29.56 in1001.0 mb 0.00 in0.0 mm 0.00 in0.0 mm 0.01 in0.3 mm
07:00 AM 47.7°F8.7°C 33.7°F0.9°C 58% 17.0 mph ESE27.4 kmh ESE 17.0 mph27.4 kmh 29.56 in1001.0 mb 0.00 in0.0 mm 0.00 in0.0 mm 0.01 in0.3 mm
06:40 AM 47.4°F8.6°C 33.4°F0.8°C 58% 9.0 mph SSE14.5 kmh SSE 23.0 mph37.0 kmh 29.57 in1001.4 mb 0.00 in0.0 mm 0.00 in0.0 mm 0.01 in0.3 mm
06:30 AM 47.2°F8.4°C 32.8°F0.4°C 57% 17.0 mph SE27.4 kmh SE 18.0 mph29.0 kmh 29.57 in1001.4 mb 0.00 in0.0 mm 0.00 in0.0 mm 0.01 in0.3 mm
06:09 AM 46.8°F8.2°C 32.8°F0.4°C 58% 12.0 mph SE19.3 kmh SE 26.0 mph41.8 kmh 29.57 in1001.4 mb 0.01 in0.3 mm 0.00 in0.0 mm 0.01 in0.3 mm
06:00 AM 46.6°F8.1°C 33.1°F0.6°C 59% 17.0 mph SE27.4 kmh SE 21.0 mph33.8 kmh 29.58 in1001.7 mb 0.01 in0.3 mm 0.00 in0.0 mm 0.01 in0.3 mm
05:40 AM 46.7°F8.2°C 33.2°F0.7°C 59% 14.0 mph SE22.5 kmh SE 22.0 mph35.4 kmh 29.59 in1002.0 mb 0.01 in0.3 mm 0.00 in0.0 mm 0.01 in0.3 mm
05:30 AM 46.7°F8.2°C 32.7°F0.4°C 58% 9.0 mph E14.5 kmh E 14.0 mph22.5 kmh 29.59 in1002.0 mb 0.01 in0.3 mm 0.03 in0.8 mm 0.01 in0.3 mm
05:09 AM 46.2°F7.9°C 33.1°F0.6°C 60% 18.0 mph ESE29.0 kmh ESE 18.0 mph29.0 kmh 29.61 in1002.7 mb 0.00 in0.0 mm 0.00 in0.0 mm 0.00 in0.0 mm
05:00 AM 46.0°F7.8°C 32.9°F0.5°C 60% 12.0 mph ESE19.3 kmh ESE 13.0 mph20.9 kmh 29.62 in1003.0 mb 0.00 in0.0 mm 0.00 in0.0 mm 0.00 in0.0 mm
04:40 AM 45.6°F7.6°C 32.5°F0.3°C 60% 7.0 mph E11.3 kmh E 16.0 mph25.7 kmh 29.63 in1003.4 mb 0.00 in0.0 mm 0.00 in0.0 mm 0.00 in0.0 mm
04:30 AM 45.3°F7.4°C 32.7°F0.4°C 61% 10.0 mph SSE16.1 kmh SSE 11.0 mph17.7 kmh 29.63 in1003.4 mb 0.00 in0.0 mm 0.00 in0.0 mm 0.00 in0.0 mm
04:10 AM 45.1°F7.3°C 32.9°F0.5°C 62% 3.0 mph SE4.8 kmh SE 12.0 mph19.3 kmh 29.64 in1003.7 mb 0.00 in0.0 mm 0.00 in0.0 mm 0.00 in0.0 mm
04:00 AM 44.9°F7.2°C 33.1°F0.6°C 63% 6.0 mph SE9.7 kmh SE 9.0 mph14.5 kmh 29.65 in1004.1 mb 0.00 in0.0 mm 0.00 in0.0 mm 0.00 in0.0 mm
03:40 AM 44.1°F6.7°C 33.1°F0.6°C 65% 1.0 mph SE1.6 kmh SE 11.0 mph17.7 kmh 29.66 in1004.4 mb 0.00 in0.0 mm 0.00 in0.0 mm 0.00 in0.0 mm
03:30 AM 43.8°F6.6°C 32.8°F0.4°C 65% 6.0 mph SE9.7 kmh SE 7.0 mph11.3 kmh 29.67 in1004.7 mb 0.00 in0.0 mm 0.00 in0.0 mm 0.00 in0.0 mm
03:10 AM 42.7°F5.9°C 33.3°F0.7°C 69% 3.0 mph SE4.8 kmh SE 14.0 mph22.5 kmh 29.69 in1005.4 mb 0.00 in0.0 mm 0.00 in0.0 mm 0.00 in0.0 mm
03:00 AM 41.6°F5.3°C 33.3°F0.7°C 72% 6.0 mph SSE9.7 kmh SSE 6.0 mph9.7 kmh 29.70 in1005.8 mb 0.00 in0.0 mm 0.00 in0.0 mm 0.00 in0.0 mm
02:40 AM 40.8°F4.9°C 33.8°F1.0°C 76% 6.0 mph SSE9.7 kmh SSE 7.0 mph11.3 kmh 29.71 in1006.1 mb 0.00 in0.0 mm 0.00 in0.0 mm 0.00 in0.0 mm
02:30 AM 39.8°F4.3°C 33.5°F0.8°C 78% 1.0 mph SSE1.6 kmh SSE 2.0 mph3.2 kmh 29.72 in1006.4 mb 0.00 in0.0 mm 0.00 in0.0 mm 0.00 in0.0 mm
02:10 AM 38.6°F3.7°C 33.3°F0.7°C 81% 1.0 mph SSE1.6 kmh SSE 4.0 mph6.4 kmh 29.72 in1006.4 mb 0.00 in0.0 mm 0.00 in0.0 mm 0.00 in0.0 mm
02:00 AM 38.8°F3.8°C 33.5°F0.8°C 81% 1.0 mph SSE1.6 kmh SSE 2.0 mph3.2 kmh 29.73 in1006.8 mb 0.00 in0.0 mm 0.00 in0.0 mm 0.00 in0.0 mm
01:40 AM 38.7°F3.7°C 33.7°F0.9°C 82% Calm Calm 2.0 mph3.2 kmh 29.73 in1006.8 mb 0.00 in0.0 mm 0.00 in0.0 mm 0.00 in0.0 mm
01:30 AM 38.8°F3.8°C 34.1°F1.2°C 83% Calm Calm -- 29.73 in1006.8 mb 0.00 in0.0 mm 0.00 in0.0 mm 0.00 in0.0 mm
01:10 AM 38.8°F3.8°C 34.1°F1.2°C 83% Calm Calm -- 29.74 in1007.1 mb 0.00 in0.0 mm 0.00 in0.0 mm 0.00 in0.0 mm
01:00 AM 39.1°F3.9°C 34.4°F1.3°C 83% Calm Calm -- 29.74 in1007.1 mb 0.00 in0.0 mm 0.00 in0.0 mm 0.00 in0.0 mm
12:40 AM 39.6°F4.2°C 34.9°F1.6°C 83% Calm Calm 2.0 mph3.2 kmh 29.75 in1007.5 mb 0.00 in0.0 mm 0.00 in0.0 mm 0.00 in0.0 mm
12:30 AM 39.9°F4.4°C 35.2°F1.8°C 83% Calm Calm -- 29.75 in1007.5 mb 0.00 in0.0 mm 0.00 in0.0 mm 0.00 in0.0 mm
12:10 AM 40.1°F4.5°C 35.7°F2.1°C 84% 2.0 mph SSE3.2 kmh SSE 3.0 mph4.8 kmh 29.76 in1007.8 mb 0.00 in0.0 mm 0.00 in0.0 mm 0.00 in0.0 mm
12:00 AM 40.0°F4.4°C 35.6°F2.0°C 84% Calm Calm -- 29.76 in1007.8 mb 0.00 in0.0 mm 0.00 in0.0 mm 0.00 in0.0 mm